Silver Orla — V7FI9 — position and weather

sailwx.info

Track history (hours):
 
Tides and Currents Weather Stations Pressure Air Temp Water Temp Dewpoint Dewpoint Depression Visibility Wind Speed Wind Dir Waves Ship Positions

Silver Orla

Last reported at 2017-Nov-26 08:03 UTC. Time now 2017-Dec-12 08:37 UTC.
Position N 49°44' W 003°36'.
Warning: this ship's position is 16 days out of date.

Length 183 m; draft 10.4 m.

Type: Tanker. MMSI: 538005601.

Date/timePositionNaut miles runAvg speedWind from/ knotsBaromVisibWave heightAir tempDewpointWater temp
2017-Nov-26 08:03N 49°44' W 003°36'411.7
2017-Nov-26 07:44N 49°46' W 003°31'311.9
2017-Nov-26 07:30N 49°48' W 003°27'612.0
2017-Nov-26 07:00N 49°51' W 003°20'612.4
2017-Nov-26 06:30N 49°54' W 003°11'612.6
2017-Nov-26 06:00N 49°57' W 003°03'612.7
2017-Nov-26 05:30N 49°59' W 002°53'612.7
2017-Nov-26 05:00N 50°01' W 002°44'612.5
2017-Nov-26 04:30N 50°03' W 002°35'2211.7
2017-Nov-26 02:39N 50°10' W 002°03'210.7
2017-Nov-26 02:30N 50°11' W 002°00'510.3
2017-Nov-26 02:00N 50°12' W 001°53'510.0
2017-Nov-26 01:30N 50°13' W 001°45'5 9.6
2017-Nov-26 01:01N 50°14' W 001°37'5 9.4
2017-Nov-26 00:31N 50°15' W 001°30'5 9.4
2017-Nov-25 23:59N 50°16' W 001°23'7 9.5
2017-Nov-25 23:17N 50°18' W 001°13'3211.1
2017-Nov-25 20:23N 50°26' W 000°24'512.2
2017-Nov-25 20:00N 50°28' W 000°17'612.3
2017-Nov-25 19:30N 50°29' W 000°08'612.3
2017-Nov-25 19:00N 50°31' E 000°01'612.3
2017-Nov-25 18:30N 50°33' E 000°11'612.3
2017-Nov-25 18:00N 50°34' E 000°20'612.1
2017-Nov-25 17:30N 50°36' E 000°29'612.0
2017-Nov-25 17:00N 50°39' E 000°37'611.8
2017-Nov-25 16:30N 50°43' E 000°45'611.4
2017-Nov-25 16:00N 50°46' E 000°52'511.0
2017-Nov-25 15:30N 50°49' E 000°59'510.9
2017-Nov-25 15:00N 50°53' E 001°06'610.8
2017-Nov-25 14:30N 50°56' E 001°12'510.2
2017-Nov-25 14:00N 50°60' E 001°18'510.4
2017-Nov-25 13:30N 51°03' E 001°25'510.6
2017-Nov-25 13:00N 51°06' E 001°31'611.7
2017-Nov-25 12:30N 51°10' E 001°39'713.2
2017-Nov-25 12:00N 51°14' E 001°46'713.8
2017-Nov-25 11:30N 51°20' E 001°51'713.6
2017-Nov-25 11:00N 51°26' E 001°57'713.5
2017-Nov-25 10:30N 51°31' E 002°04'713.1
2017-Nov-25 10:00N 51°36' E 002°11'712.8
2017-Nov-25 09:29N 51°41' E 002°19'4510.9
2017-Nov-25 05:20N 52°03' E 003°23'411.3
2017-Nov-25 04:59N 52°03' E 003°29'511.2
2017-Nov-25 04:30N 52°03' E 003°38'611.2
2017-Nov-25 04:00N 52°03' E 003°47'4 7.8
2017-Nov-25 03:30N 52°03' E 003°53'4 8.4
2017-Nov-25 03:00N 52°01' E 003°59'510.5
2017-Nov-25 02:30N 51°59' E 004°07'611.1
2017-Nov-25 02:00N 51°55' E 004°14'5 9.0
2017-Nov-25 01:30N 51°54' E 004°21'0 0.5
2017-Nov-25 00:55N 51°54' E 004°22'0 0.0
2017-Nov-25 00:28N 51°54' E 004°22'0 0.0
2017-Nov-24 23:58N 51°54' E 004°22'0 0.0
2017-Nov-24 23:28N 51°54' E 004°22'0 0.0
2017-Nov-24 22:55N 51°54' E 004°22'0 0.0
2017-Nov-24 22:28N 51°54' E 004°22'0 0.0
2017-Nov-24 21:58N 51°54' E 004°22'0 0.0
2017-Nov-24 20:58N 51°54' E 004°22'0 0.0
2017-Nov-24 20:28N 51°54' E 004°22'0 0.0
2017-Nov-24 19:58N 51°54' E 004°22'0 0.0
2017-Nov-24 19:28N 51°54' E 004°22'0 0.0
2017-Nov-24 18:58N 51°54' E 004°22'0 0.0
2017-Nov-24 18:28N 51°54' E 004°22'0 0.0
2017-Nov-24 17:58N 51°54' E 004°22'0 0.0
2017-Nov-24 17:28N 51°54' E 004°22'0 0.0
2017-Nov-24 16:58N 51°54' E 004°22'0 0.0
2017-Nov-24 16:28N 51°54' E 004°22'0 0.0
2017-Nov-24 15:58N 51°54' E 004°22'0 0.0
2017-Nov-24 15:28N 51°54' E 004°22'0 0.0
2017-Nov-24 14:58N 51°54' E 004°22'0 0.0
2017-Nov-24 14:28N 51°54' E 004°22'0 0.0
2017-Nov-24 13:55N 51°54' E 004°22'0 0.0
2017-Nov-24 13:28N 51°54' E 004°22'0 0.0
2017-Nov-24 12:58N 51°54' E 004°22'0 0.0
2017-Nov-24 12:22N 51°54' E 004°22'0 0.0
2017-Nov-24 11:58N 51°54' E 004°22'0 0.0
2017-Nov-24 11:28N 51°54' E 004°22'0 0.0
2017-Nov-24 10:46N 51°54' E 004°22'0 0.0
2017-Nov-24 10:25N 51°54' E 004°22'0 0.0
2017-Nov-24 09:58N 51°54' E 004°22'0 0.0
2017-Nov-24 09:28N 51°54' E 004°22'0 0.0
2017-Nov-24 08:55N 51°54' E 004°22'0 0.0
2017-Nov-24 08:25N 51°54' E 004°22'0 0.0
2017-Nov-24 07:58N 51°54' E 004°22'0 0.0
2017-Nov-24 07:28N 51°54' E 004°22'0 0.0
2017-Nov-24 06:58N 51°54' E 004°22'0 0.0
2017-Nov-24 06:28N 51°54' E 004°22'0 0.0
2017-Nov-24 05:58N 51°54' E 004°22'0 0.0
2017-Nov-24 05:25N 51°54' E 004°22'0 0.0
2017-Nov-24 04:58N 51°54' E 004°22'0 0.0
2017-Nov-24 04:28N 51°54' E 004°22'0 0.0
2017-Nov-24 03:55N 51°54' E 004°22'0 0.0
2017-Nov-24 03:28N 51°54' E 004°22'0 0.0
2017-Nov-24 02:55N 51°54' E 004°22'0 0.0
2017-Nov-24 02:28N 51°54' E 004°22'0 0.0
2017-Nov-24 01:55N 51°54' E 004°22'0 0.0
2017-Nov-24 01:25N 51°54' E 004°22'0 0.0
2017-Nov-24 00:58N 51°54' E 004°22'0 0.0
2017-Nov-24 00:28N 51°54' E 004°22'0 0.0
2017-Nov-23 23:58N 51°54' E 004°22'0 0.0
2017-Nov-23 23:28N 51°54' E 004°22'0 0.0
2017-Nov-23 22:58N 51°54' E 004°22'0 0.0
2017-Nov-23 22:28N 51°54' E 004°22'0 0.0
2017-Nov-23 21:58N 51°54' E 004°22'0 0.0
2017-Nov-23 21:28N 51°54' E 004°22'0 0.0
2017-Nov-23 20:58N 51°54' E 004°22'0 0.0
2017-Nov-23 20:25N 51°54' E 004°22'0 0.0
2017-Nov-23 19:58N 51°54' E 004°22'0 0.0
2017-Nov-23 19:28N 51°54' E 004°22'0 0.0
2017-Nov-23 18:58N 51°54' E 004°22'0 0.0
2017-Nov-23 18:28N 51°54' E 004°22'0 0.0
2017-Nov-23 17:52N 51°54' E 004°22'0 0.0
2017-Nov-23 17:25N 51°54' E 004°22'0 0.0
2017-Nov-23 16:55N 51°54' E 004°22'0 0.0
2017-Nov-23 16:28N 51°54' E 004°22'0 0.0
2017-Nov-23 15:55N 51°54' E 004°22'0 0.0
2017-Nov-23 15:25N 51°54' E 004°22'0 0.0
2017-Nov-23 14:58N 51°54' E 004°22'0 0.0
2017-Nov-23 14:25N 51°54' E 004°22'0 0.0
2017-Nov-23 13:58N 51°54' E 004°22'0 0.0
2017-Nov-23 13:13N 51°54' E 004°22'0 0.0
2017-Nov-23 12:55N 51°54' E 004°22'0 0.0
2017-Nov-23 12:25N 51°54' E 004°22'0 0.0
2017-Nov-23 11:55N 51°54' E 004°22'0 0.0
2017-Nov-23 11:28N 51°54' E 004°22'0 0.0
2017-Nov-23 10:58N 51°54' E 004°22'0 0.0
2017-Nov-23 10:28N 51°54' E 004°22'0 0.0
2017-Nov-23 09:58N 51°54' E 004°22'0 0.0
2017-Nov-23 09:28N 51°54' E 004°22'0 0.0
2017-Nov-23 08:55N 51°54' E 004°22'0 0.0
2017-Nov-23 08:28N 51°54' E 004°22'0 0.0
2017-Nov-23 07:58N 51°54' E 004°22'0 0.0
2017-Nov-23 07:28N 51°54' E 004°22'0 0.0
2017-Nov-23 06:58N 51°54' E 004°22'0 0.0
2017-Nov-23 06:28N 51°54' E 004°22'0 0.0
2017-Nov-23 05:55N 51°54' E 004°22'0 0.0
2017-Nov-23 05:28N 51°54' E 004°22'0 0.0
2017-Nov-23 04:58N 51°54' E 004°22'0 0.0
2017-Nov-23 04:28N 51°54' E 004°22'0 0.0
2017-Nov-23 03:58N 51°54' E 004°22'0 0.0
2017-Nov-23 03:28N 51°54' E 004°22'0 0.0
2017-Nov-23 02:58N 51°54' E 004°22'0 0.0
2017-Nov-23 02:28N 51°54' E 004°22'0 0.0
2017-Nov-23 01:55N 51°54' E 004°22'0 0.0
2017-Nov-23 01:28N 51°54' E 004°22'0 0.0
2017-Nov-23 00:58N 51°54' E 004°22'0 0.0
2017-Nov-23 00:25N 51°54' E 004°22'0 0.0
2017-Nov-22 23:58N 51°54' E 004°22'0 0.0
2017-Nov-22 23:25N 51°54' E 004°22'0 0.0
2017-Nov-22 22:58N 51°54' E 004°22'0 0.0
2017-Nov-22 22:28N 51°54' E 004°22'0 0.0
2017-Nov-22 21:58N 51°54' E 004°22'0 0.0
2017-Nov-22 21:25N 51°54' E 004°22'0 0.0
2017-Nov-22 20:58N 51°54' E 004°22'0 0.0
2017-Nov-22 20:25N 51°54' E 004°22'0 0.0
2017-Nov-22 19:58N 51°54' E 004°22'0 0.0
2017-Nov-22 19:19N 51°54' E 004°22'  
2017-Nov-20 00:28N 51°53' E 004°22'0 0.0
2017-Nov-19 23:58N 51°53' E 004°22'0 0.0
2017-Nov-19 23:28N 51°53' E 004°22'0 0.0
2017-Nov-19 22:58N 51°53' E 004°22'0 0.0
2017-Nov-19 22:19N 51°53' E 004°22'0 0.0
2017-Nov-19 21:58N 51°53' E 004°22'0 0.0
2017-Nov-19 21:25N 51°53' E 004°22'0 0.0
2017-Nov-19 20:58N 51°53' E 004°22'0 0.0
2017-Nov-19 20:25N 51°53' E 004°22'0 0.0
2017-Nov-19 19:58N 51°53' E 004°22'0 0.0
2017-Nov-19 19:28N 51°53' E 004°22'0 0.0
2017-Nov-19 18:55N 51°53' E 004°22'0 0.0
2017-Nov-19 18:25N 51°53' E 004°22'0 0.0
2017-Nov-19 17:58N 51°53' E 004°22'0 0.0
2017-Nov-19 17:25N 51°53' E 004°22'0 0.0
2017-Nov-19 16:49N 51°53' E 004°22'0 0.0
2017-Nov-19 16:28N 51°53' E 004°22'0 0.0
2017-Nov-19 15:58N 51°53' E 004°22'0 0.0
2017-Nov-19 15:28N 51°53' E 004°22'0 0.0
2017-Nov-19 14:58N 51°53' E 004°22'0 0.0
2017-Nov-19 14:22N 51°53' E 004°22'0 0.0
2017-Nov-19 13:34N 51°53' E 004°22'0 0.0
2017-Nov-19 13:22N 51°53' E 004°22'0 0.0
2017-Nov-19 12:58N 51°53' E 004°22'0 0.0
2017-Nov-19 11:34N 51°53' E 004°22'0 0.0
2017-Nov-19 11:16N 51°53' E 004°22'0 0.0
2017-Nov-19 10:55N 51°53' E 004°22'0 0.0
2017-Nov-19 10:28N 51°53' E 004°22'0 0.0
2017-Nov-19 09:55N 51°53' E 004°22'0 0.0
2017-Nov-19 09:25N 51°53' E 004°22'0 0.0
2017-Nov-19 08:58N 51°53' E 004°22'0 0.0
2017-Nov-19 08:28N 51°53' E 004°22'0 0.0
2017-Nov-19 07:58N 51°53' E 004°22'0 0.0
2017-Nov-19 07:28N 51°53' E 004°22'0 0.0
2017-Nov-19 06:49N 51°53' E 004°22'0 0.0
2017-Nov-19 06:25N 51°53' E 004°22'0 0.0
2017-Nov-19 05:58N 51°53' E 004°22'0 0.0
2017-Nov-19 05:28N 51°53' E 004°22'0 0.0
2017-Nov-19 04:58N 51°53' E 004°22'0 0.0
2017-Nov-19 04:25N 51°53' E 004°22'0 0.3
2017-Nov-19 03:55N 51°53' E 004°22'1 1.0
2017-Nov-19 03:22N 51°54' E 004°22'0 0.1
2017-Nov-19 02:58N 51°54' E 004°22'0 0.0
2017-Nov-19 02:28N 51°54' E 004°22'0 0.0
2017-Nov-19 01:58N 51°54' E 004°22'0 0.0
2017-Nov-19 01:25N 51°54' E 004°22'0 0.0
2017-Nov-19 00:58N 51°54' E 004°22'0 0.0
2017-Nov-19 00:28N 51°54' E 004°22'0 0.0
2017-Nov-18 23:58N 51°54' E 004°22'0 0.0
2017-Nov-18 23:25N 51°54' E 004°22'0 0.0
2017-Nov-18 22:58N 51°54' E 004°22'0 0.0
2017-Nov-18 22:28N 51°54' E 004°22'0 0.0
2017-Nov-18 21:58N 51°54' E 004°22'0 0.0
2017-Nov-18 21:28N 51°54' E 004°22'0 0.0
2017-Nov-18 20:55N 51°54' E 004°22'0 0.0
2017-Nov-18 20:28N 51°54' E 004°22'0 0.0
2017-Nov-18 19:58N 51°54' E 004°22'0 0.0
2017-Nov-18 19:28N 51°54' E 004°22'0 0.0
2017-Nov-18 18:58N 51°54' E 004°22'0 0.0
2017-Nov-18 18:25N 51°54' E 004°22'0 0.0
2017-Nov-18 17:58N 51°54' E 004°22'0 0.0
2017-Nov-18 17:25N 51°54' E 004°22'0 0.0
2017-Nov-18 16:58N 51°54' E 004°22'0 0.0
2017-Nov-18 16:28N 51°54' E 004°22'0 0.0
2017-Nov-18 15:55N 51°54' E 004°22'0 0.0
2017-Nov-18 15:28N 51°54' E 004°22'0 0.0
2017-Nov-18 14:58N 51°54' E 004°22'0 0.0
2017-Nov-18 14:28N 51°54' E 004°22'0 0.0
2017-Nov-18 13:58N 51°54' E 004°22'0 0.0
2017-Nov-18 13:25N 51°54' E 004°22'0 0.0
2017-Nov-18 12:58N 51°54' E 004°22'0 0.0
2017-Nov-18 12:28N 51°54' E 004°22'0 0.0
2017-Nov-18 11:58N 51°54' E 004°22'0 0.0
2017-Nov-18 11:28N 51°54' E 004°22'0 0.0
2017-Nov-18 10:58N 51°54' E 004°22'0 0.0
2017-Nov-18 10:25N 51°54' E 004°22'0 0.0
2017-Nov-18 09:58N 51°54' E 004°22'0 0.0
2017-Nov-18 09:22N 51°54' E 004°22'0 0.0
2017-Nov-18 08:58N 51°54' E 004°22'0 0.0
2017-Nov-18 08:28N 51°54' E 004°22'0 0.0
2017-Nov-18 07:58N 51°54' E 004°22'0 0.0
2017-Nov-18 07:28N 51°54' E 004°22'0 0.0
2017-Nov-18 07:00N 51°54' E 004°22'0 0.5
2017-Nov-18 06:30N 51°54' E 004°21'3 5.9
2017-Nov-18 06:00N 51°54' E 004°17'4 7.3
2017-Nov-18 05:30N 51°56' E 004°12'4 8.6
2017-Nov-18 05:00N 51°59' E 004°06'510.8
2017-Nov-18 04:30N 52°00' E 003°58'510.3
2017-Nov-18 04:00N 52°00' E 003°49'511.0
2017-Nov-18 03:30N 51°59' E 003°41'611.9
2017-Nov-18 02:59N 51°57' E 003°31'4 7.2
2017-Nov-18 02:28N 51°54' E 003°27'0 0.0
2017-Nov-16 15:07N 51°54' E 003°27'0 0.0
2017-Nov-16 14:55N 51°54' E 003°27'0 0.0
2017-Nov-16 14:16N 51°54' E 003°27'0 0.0
2017-Nov-16 13:22N 51°54' E 003°27'0 0.0
2017-Nov-16 12:58N 51°54' E 003°27'  
Track history (hours):
 
Tides and Currents Weather Stations Pressure Air Temp Water Temp Dewpoint Dewpoint Depression Visibility Wind Speed Wind Dir Waves Ship Positions

Silver Orla

Last reported at 2017-Nov-26 08:03 UTC. Time now 2017-Dec-12 08:37 UTC.
Position N 49°44' W 003°36'.
Warning: this ship's position is 16 days out of date.

Length 183 m; draft 10.4 m.

Type: Tanker. MMSI: 538005601.

Date/timePositionNaut miles runAvg speedWind from/ knotsBaromVisibWave heightAir tempDewpointWater temp
2017-Nov-26 08:03N 49°44' W 003°36'411.7
2017-Nov-26 07:44N 49°46' W 003°31'311.9
2017-Nov-26 07:30N 49°48' W 003°27'612.0
2017-Nov-26 07:00N 49°51' W 003°20'612.4
2017-Nov-26 06:30N 49°54' W 003°11'612.6
2017-Nov-26 06:00N 49°57' W 003°03'612.7
2017-Nov-26 05:30N 49°59' W 002°53'612.7
2017-Nov-26 05:00N 50°01' W 002°44'612.5
2017-Nov-26 04:30N 50°03' W 002°35'2211.7
2017-Nov-26 02:39N 50°10' W 002°03'210.7
2017-Nov-26 02:30N 50°11' W 002°00'510.3
2017-Nov-26 02:00N 50°12' W 001°53'510.0
2017-Nov-26 01:30N 50°13' W 001°45'5 9.6
2017-Nov-26 01:01N 50°14' W 001°37'5 9.4
2017-Nov-26 00:31N 50°15' W 001°30'5 9.4
2017-Nov-25 23:59N 50°16' W 001°23'7 9.5
2017-Nov-25 23:17N 50°18' W 001°13'3211.1
2017-Nov-25 20:23N 50°26' W 000°24'512.2
2017-Nov-25 20:00N 50°28' W 000°17'612.3
2017-Nov-25 19:30N 50°29' W 000°08'612.3
2017-Nov-25 19:00N 50°31' E 000°01'612.3
2017-Nov-25 18:30N 50°33' E 000°11'612.3
2017-Nov-25 18:00N 50°34' E 000°20'612.1
2017-Nov-25 17:30N 50°36' E 000°29'612.0
2017-Nov-25 17:00N 50°39' E 000°37'611.8
2017-Nov-25 16:30N 50°43' E 000°45'611.4
2017-Nov-25 16:00N 50°46' E 000°52'511.0
2017-Nov-25 15:30N 50°49' E 000°59'510.9
2017-Nov-25 15:00N 50°53' E 001°06'610.8
2017-Nov-25 14:30N 50°56' E 001°12'510.2
2017-Nov-25 14:00N 50°60' E 001°18'510.4
2017-Nov-25 13:30N 51°03' E 001°25'510.6
2017-Nov-25 13:00N 51°06' E 001°31'611.7
2017-Nov-25 12:30N 51°10' E 001°39'713.2
2017-Nov-25 12:00N 51°14' E 001°46'713.8
2017-Nov-25 11:30N 51°20' E 001°51'713.6
2017-Nov-25 11:00N 51°26' E 001°57'713.5
2017-Nov-25 10:30N 51°31' E 002°04'713.1
2017-Nov-25 10:00N 51°36' E 002°11'712.8
2017-Nov-25 09:29N 51°41' E 002°19'4510.9
2017-Nov-25 05:20N 52°03' E 003°23'411.3
2017-Nov-25 04:59N 52°03' E 003°29'511.2
2017-Nov-25 04:30N 52°03' E 003°38'611.2
2017-Nov-25 04:00N 52°03' E 003°47'4 7.8
2017-Nov-25 03:30N 52°03' E 003°53'4 8.4
2017-Nov-25 03:00N 52°01' E 003°59'510.5
2017-Nov-25 02:30N 51°59' E 004°07'611.1
2017-Nov-25 02:00N 51°55' E 004°14'5 9.0
2017-Nov-25 01:30N 51°54' E 004°21'0 0.5
2017-Nov-25 00:55N 51°54' E 004°22'0 0.0
2017-Nov-25 00:28N 51°54' E 004°22'0 0.0
2017-Nov-24 23:58N 51°54' E 004°22'0 0.0
2017-Nov-24 23:28N 51°54' E 004°22'0 0.0
2017-Nov-24 22:55N 51°54' E 004°22'0 0.0
2017-Nov-24 22:28N 51°54' E 004°22'0 0.0
2017-Nov-24 21:58N 51°54' E 004°22'0 0.0
2017-Nov-24 20:58N 51°54' E 004°22'0 0.0
2017-Nov-24 20:28N 51°54' E 004°22'0 0.0
2017-Nov-24 19:58N 51°54' E 004°22'0 0.0
2017-Nov-24 19:28N 51°54' E 004°22'0 0.0
2017-Nov-24 18:58N 51°54' E 004°22'0 0.0
2017-Nov-24 18:28N 51°54' E 004°22'0 0.0
2017-Nov-24 17:58N 51°54' E 004°22'0 0.0
2017-Nov-24 17:28N 51°54' E 004°22'0 0.0
2017-Nov-24 16:58N 51°54' E 004°22'0 0.0
2017-Nov-24 16:28N 51°54' E 004°22'0 0.0
2017-Nov-24 15:58N 51°54' E 004°22'0 0.0
2017-Nov-24 15:28N 51°54' E 004°22'0 0.0
2017-Nov-24 14:58N 51°54' E 004°22'0 0.0
2017-Nov-24 14:28N 51°54' E 004°22'0 0.0
2017-Nov-24 13:55N 51°54' E 004°22'0 0.0
2017-Nov-24 13:28N 51°54' E 004°22'0 0.0
2017-Nov-24 12:58N 51°54' E 004°22'0 0.0
2017-Nov-24 12:22N 51°54' E 004°22'0 0.0
2017-Nov-24 11:58N 51°54' E 004°22'0 0.0
2017-Nov-24 11:28N 51°54' E 004°22'0 0.0
2017-Nov-24 10:46N 51°54' E 004°22'0 0.0
2017-Nov-24 10:25N 51°54' E 004°22'0 0.0
2017-Nov-24 09:58N 51°54' E 004°22'0 0.0
2017-Nov-24 09:28N 51°54' E 004°22'0 0.0
2017-Nov-24 08:55N 51°54' E 004°22'0 0.0
2017-Nov-24 08:25N 51°54' E 004°22'0 0.0
2017-Nov-24 07:58N 51°54' E 004°22'0 0.0
2017-Nov-24 07:28N 51°54' E 004°22'0 0.0
2017-Nov-24 06:58N 51°54' E 004°22'0 0.0
2017-Nov-24 06:28N 51°54' E 004°22'0 0.0
2017-Nov-24 05:58N 51°54' E 004°22'0 0.0
2017-Nov-24 05:25N 51°54' E 004°22'0 0.0
2017-Nov-24 04:58N 51°54' E 004°22'0 0.0
2017-Nov-24 04:28N 51°54' E 004°22'0 0.0
2017-Nov-24 03:55N 51°54' E 004°22'0 0.0
2017-Nov-24 03:28N 51°54' E 004°22'0 0.0
2017-Nov-24 02:55N 51°54' E 004°22'0 0.0
2017-Nov-24 02:28N 51°54' E 004°22'0 0.0
2017-Nov-24 01:55N 51°54' E 004°22'0 0.0
2017-Nov-24 01:25N 51°54' E 004°22'0 0.0
2017-Nov-24 00:58N 51°54' E 004°22'0 0.0
2017-Nov-24 00:28N 51°54' E 004°22'0 0.0
2017-Nov-23 23:58N 51°54' E 004°22'0 0.0
2017-Nov-23 23:28N 51°54' E 004°22'0 0.0
2017-Nov-23 22:58N 51°54' E 004°22'0 0.0
2017-Nov-23 22:28N 51°54' E 004°22'0 0.0
2017-Nov-23 21:58N 51°54' E 004°22'0 0.0
2017-Nov-23 21:28N 51°54' E 004°22'0 0.0
2017-Nov-23 20:58N 51°54' E 004°22'0 0.0
2017-Nov-23 20:25N 51°54' E 004°22'0 0.0
2017-Nov-23 19:58N 51°54' E 004°22'0 0.0
2017-Nov-23 19:28N 51°54' E 004°22'0 0.0
2017-Nov-23 18:58N 51°54' E 004°22'0 0.0
2017-Nov-23 18:28N 51°54' E 004°22'0 0.0
2017-Nov-23 17:52N 51°54' E 004°22'0 0.0
2017-Nov-23 17:25N 51°54' E 004°22'0 0.0
2017-Nov-23 16:55N 51°54' E 004°22'0 0.0
2017-Nov-23 16:28N 51°54' E 004°22'0 0.0
2017-Nov-23 15:55N 51°54' E 004°22'0 0.0
2017-Nov-23 15:25N 51°54' E 004°22'0 0.0
2017-Nov-23 14:58N 51°54' E 004°22'0 0.0
2017-Nov-23 14:25N 51°54' E 004°22'0 0.0
2017-Nov-23 13:58N 51°54' E 004°22'0 0.0
2017-Nov-23 13:13N 51°54' E 004°22'0 0.0
2017-Nov-23 12:55N 51°54' E 004°22'0 0.0
2017-Nov-23 12:25N 51°54' E 004°22'0 0.0
2017-Nov-23 11:55N 51°54' E 004°22'0 0.0
2017-Nov-23 11:28N 51°54' E 004°22'0 0.0
2017-Nov-23 10:58N 51°54' E 004°22'0 0.0
2017-Nov-23 10:28N 51°54' E 004°22'0 0.0
2017-Nov-23 09:58N 51°54' E 004°22'0 0.0
2017-Nov-23 09:28N 51°54' E 004°22'0 0.0
2017-Nov-23 08:55N 51°54' E 004°22'0 0.0
2017-Nov-23 08:28N 51°54' E 004°22'0 0.0
2017-Nov-23 07:58N 51°54' E 004°22'0 0.0
2017-Nov-23 07:28N 51°54' E 004°22'0 0.0
2017-Nov-23 06:58N 51°54' E 004°22'0 0.0
2017-Nov-23 06:28N 51°54' E 004°22'0 0.0
2017-Nov-23 05:55N 51°54' E 004°22'0 0.0
2017-Nov-23 05:28N 51°54' E 004°22'0 0.0
2017-Nov-23 04:58N 51°54' E 004°22'0 0.0
2017-Nov-23 04:28N 51°54' E 004°22'0 0.0
2017-Nov-23 03:58N 51°54' E 004°22'0 0.0
2017-Nov-23 03:28N 51°54' E 004°22'0 0.0
2017-Nov-23 02:58N 51°54' E 004°22'0 0.0
2017-Nov-23 02:28N 51°54' E 004°22'0 0.0
2017-Nov-23 01:55N 51°54' E 004°22'0 0.0
2017-Nov-23 01:28N 51°54' E 004°22'0 0.0
2017-Nov-23 00:58N 51°54' E 004°22'0 0.0
2017-Nov-23 00:25N 51°54' E 004°22'0 0.0
2017-Nov-22 23:58N 51°54' E 004°22'0 0.0
2017-Nov-22 23:25N 51°54' E 004°22'0 0.0
2017-Nov-22 22:58N 51°54' E 004°22'0 0.0
2017-Nov-22 22:28N 51°54' E 004°22'0 0.0
2017-Nov-22 21:58N 51°54' E 004°22'0 0.0
2017-Nov-22 21:25N 51°54' E 004°22'0 0.0
2017-Nov-22 20:58N 51°54' E 004°22'0 0.0
2017-Nov-22 20:25N 51°54' E 004°22'0 0.0
2017-Nov-22 19:58N 51°54' E 004°22'0 0.0
2017-Nov-22 19:19N 51°54' E 004°22'  
2017-Nov-20 00:28N 51°53' E 004°22'0 0.0
2017-Nov-19 23:58N 51°53' E 004°22'0 0.0
2017-Nov-19 23:28N 51°53' E 004°22'0 0.0
2017-Nov-19 22:58N 51°53' E 004°22'0 0.0
2017-Nov-19 22:19N 51°53' E 004°22'0 0.0
2017-Nov-19 21:58N 51°53' E 004°22'0 0.0
2017-Nov-19 21:25N 51°53' E 004°22'0 0.0
2017-Nov-19 20:58N 51°53' E 004°22'0 0.0
2017-Nov-19 20:25N 51°53' E 004°22'0 0.0
2017-Nov-19 19:58N 51°53' E 004°22'0 0.0
2017-Nov-19 19:28N 51°53' E 004°22'0 0.0
2017-Nov-19 18:55N 51°53' E 004°22'0 0.0
2017-Nov-19 18:25N 51°53' E 004°22'0 0.0
2017-Nov-19 17:58N 51°53' E 004°22'0 0.0
2017-Nov-19 17:25N 51°53' E 004°22'0 0.0
2017-Nov-19 16:49N 51°53' E 004°22'0 0.0
2017-Nov-19 16:28N 51°53' E 004°22'0 0.0
2017-Nov-19 15:58N 51°53' E 004°22'0 0.0
2017-Nov-19 15:28N 51°53' E 004°22'0 0.0
2017-Nov-19 14:58N 51°53' E 004°22'0 0.0
2017-Nov-19 14:22N 51°53' E 004°22'0 0.0
2017-Nov-19 13:34N 51°53' E 004°22'0 0.0
2017-Nov-19 13:22N 51°53' E 004°22'0 0.0
2017-Nov-19 12:58N 51°53' E 004°22'0 0.0
2017-Nov-19 11:34N 51°53' E 004°22'0 0.0
2017-Nov-19 11:16N 51°53' E 004°22'0 0.0
2017-Nov-19 10:55N 51°53' E 004°22'0 0.0
2017-Nov-19 10:28N 51°53' E 004°22'0 0.0
2017-Nov-19 09:55N 51°53' E 004°22'0 0.0
2017-Nov-19 09:25N 51°53' E 004°22'0 0.0
2017-Nov-19 08:58N 51°53' E 004°22'0 0.0
2017-Nov-19 08:28N 51°53' E 004°22'0 0.0
2017-Nov-19 07:58N 51°53' E 004°22'0 0.0
2017-Nov-19 07:28N 51°53' E 004°22'0 0.0
2017-Nov-19 06:49N 51°53' E 004°22'0 0.0
2017-Nov-19 06:25N 51°53' E 004°22'0 0.0
2017-Nov-19 05:58N 51°53' E 004°22'0 0.0
2017-Nov-19 05:28N 51°53' E 004°22'0 0.0
2017-Nov-19 04:58N 51°53' E 004°22'0 0.0
2017-Nov-19 04:25N 51°53' E 004°22'0 0.3
2017-Nov-19 03:55N 51°53' E 004°22'1 1.0
2017-Nov-19 03:22N 51°54' E 004°22'0 0.1
2017-Nov-19 02:58N 51°54' E 004°22'0 0.0
2017-Nov-19 02:28N 51°54' E 004°22'0 0.0
2017-Nov-19 01:58N 51°54' E 004°22'0 0.0
2017-Nov-19 01:25N 51°54' E 004°22'0 0.0
2017-Nov-19 00:58N 51°54' E 004°22'0 0.0
2017-Nov-19 00:28N 51°54' E 004°22'0 0.0
2017-Nov-18 23:58N 51°54' E 004°22'0 0.0
2017-Nov-18 23:25N 51°54' E 004°22'0 0.0
2017-Nov-18 22:58N 51°54' E 004°22'0 0.0
2017-Nov-18 22:28N 51°54' E 004°22'0 0.0
2017-Nov-18 21:58N 51°54' E 004°22'0 0.0
2017-Nov-18 21:28N 51°54' E 004°22'0 0.0
2017-Nov-18 20:55N 51°54' E 004°22'0 0.0
2017-Nov-18 20:28N 51°54' E 004°22'0 0.0
2017-Nov-18 19:58N 51°54' E 004°22'0 0.0
2017-Nov-18 19:28N 51°54' E 004°22'0 0.0
2017-Nov-18 18:58N 51°54' E 004°22'0 0.0
2017-Nov-18 18:25N 51°54' E 004°22'0 0.0
2017-Nov-18 17:58N 51°54' E 004°22'0 0.0
2017-Nov-18 17:25N 51°54' E 004°22'0 0.0
2017-Nov-18 16:58N 51°54' E 004°22'0 0.0
2017-Nov-18 16:28N 51°54' E 004°22'0 0.0
2017-Nov-18 15:55N 51°54' E 004°22'0 0.0
2017-Nov-18 15:28N 51°54' E 004°22'0 0.0
2017-Nov-18 14:58N 51°54' E 004°22'0 0.0
2017-Nov-18 14:28N 51°54' E 004°22'0 0.0
2017-Nov-18 13:58N 51°54' E 004°22'0 0.0
2017-Nov-18 13:25N 51°54' E 004°22'0 0.0
2017-Nov-18 12:58N 51°54' E 004°22'0 0.0
2017-Nov-18 12:28N 51°54' E 004°22'0 0.0
2017-Nov-18 11:58N 51°54' E 004°22'0 0.0
2017-Nov-18 11:28N 51°54' E 004°22'0 0.0
2017-Nov-18 10:58N 51°54' E 004°22'0 0.0
2017-Nov-18 10:25N 51°54' E 004°22'0 0.0
2017-Nov-18 09:58N 51°54' E 004°22'0 0.0
2017-Nov-18 09:22N 51°54' E 004°22'0 0.0
2017-Nov-18 08:58N 51°54' E 004°22'0 0.0
2017-Nov-18 08:28N 51°54' E 004°22'0 0.0
2017-Nov-18 07:58N 51°54' E 004°22'0 0.0
2017-Nov-18 07:28N 51°54' E 004°22'0 0.0
2017-Nov-18 07:00N 51°54' E 004°22'0 0.5
2017-Nov-18 06:30N 51°54' E 004°21'3 5.9
2017-Nov-18 06:00N 51°54' E 004°17'4 7.3
2017-Nov-18 05:30N 51°56' E 004°12'4 8.6
2017-Nov-18 05:00N 51°59' E 004°06'510.8
2017-Nov-18 04:30N 52°00' E 003°58'510.3
2017-Nov-18 04:00N 52°00' E 003°49'511.0
2017-Nov-18 03:30N 51°59' E 003°41'611.9
2017-Nov-18 02:59N 51°57' E 003°31'4 7.2
2017-Nov-18 02:28N 51°54' E 003°27'0 0.0
2017-Nov-16 15:07N 51°54' E 003°27'0 0.0
2017-Nov-16 14:55N 51°54' E 003°27'0 0.0
2017-Nov-16 14:16N 51°54' E 003°27'0 0.0
2017-Nov-16 13:22N 51°54' E 003°27'0 0.0
2017-Nov-16 12:58N 51°54' E 003°27'  

Dump ship's entire track history